Time;durP1;ratioP1;P1;durP2;ratioP2;P2;SDS_P1;SDS_P2;PMS_P1;PMS_P2;Temp;Humidity;BMP_temperature;BMP_pressure;BME280_temperature;BME280_humidity;BME280_pressure;Samples;Min_cycle;Max_cycle;Signal;HPM_P1;HPM_P2
2022/04/10 00:01:33;;;;;;;14.80;4.80;;;6.70;95.60;;;;;;5053997;28;20121;-58
2022/04/10 00:04:00;;;;;;;9.93;4.82;;;6.60;95.90;;;;;;5053620;28;20037;-58
2022/04/10 00:06:26;;;;;;;9.45;4.63;;;6.50;96.00;;;;;;5053484;28;20131;-60
2022/04/10 00:08:53;;;;;;;14.25;4.50;;;6.50;96.00;;;;;;5053658;28;20076;-56
2022/04/10 00:11:20;;;;;;;9.75;4.15;;;6.40;96.10;;;;;;5053619;28;20490;-60
2022/04/10 00:13:47;;;;;;;9.90;3.83;;;6.30;96.20;;;;;;5054044;28;20401;-58
2022/04/10 00:16:14;;;;;;;9.05;4.15;;;6.30;96.20;;;;;;5053417;28;20076;-61
2022/04/10 00:18:41;;;;;;;12.52;4.28;;;6.20;96.50;;;;;;5052743;28;20123;-59
2022/04/10 00:21:07;;;;;;;10.25;4.03;;;6.10;96.60;;;;;;5052080;28;20037;-58
2022/04/10 00:23:34;;;;;;;8.50;3.92;;;6.10;96.90;;;;;;5051787;28;20037;-59
2022/04/10 00:26:01;;;;;;;7.43;3.25;;;6.00;96.80;;;;;;5052702;28;20037;-60
2022/04/10 00:28:28;;;;;;;10.27;3.90;;;6.00;96.70;;;;;;5051241;28;20060;-57
2022/04/10 00:30:55;;;;;;;9.07;3.30;;;6.00;96.70;;;;;;5051038;28;20076;-61
2022/04/10 00:33:23;;;;;;;10.00;4.07;;;5.90;96.80;;;;;;5052613;28;20052;-58
2022/04/10 00:35:49;;;;;;;10.10;3.92;;;5.90;97.00;;;;;;5052125;28;20079;-58
2022/04/10 00:38:20;;;;;;;9.15;4.05;;;5.90;97.00;;;;;;4855363;27;10000540;-58
2022/04/10 00:40:48;;;;;;;8.85;3.88;;;5.80;97.10;;;;;;5051533;28;20248;-56
2022/04/10 00:43:15;;;;;;;8.30;3.72;;;5.70;97.30;;;;;;5052147;28;20045;-59
2022/04/10 00:45:42;;;;;;;10.77;3.65;;;5.70;97.40;;;;;;5051798;28;20148;-59
2022/04/10 00:48:10;;;;;;;10.85;3.85;;;5.60;97.20;;;;;;5050901;28;20500;-56
2022/04/10 00:51:39;;;;;;;8.60;4.05;;;5.50;97.30;;;;;;5051825;28;20088;-56
2022/04/10 00:53:24;;;;;;;13.55;3.78;;;5.50;97.50;;;;;;5051903;28;20061;-56
2022/04/10 00:55:50;;;;;;;11.07;4.03;;;5.40;97.70;;;;;;5051862;28;20787;-57
2022/04/10 00:58:17;;;;;;;7.60;3.08;;;5.40;97.80;;;;;;5051974;28;20131;-58
2022/04/10 01:00:44;;;;;;;5.95;3.40;;;5.30;97.90;;;;;;5051309;28;20116;-58
2022/04/10 01:03:11;;;;;;;9.20;3.70;;;5.30;98.00;;;;;;5052107;28;20393;-57
2022/04/10 01:05:38;;;;;;;11.82;5.03;;;5.40;98.20;;;;;;5051305;28;20057;-57
2022/04/10 01:08:05;;;;;;;15.23;3.63;;;5.30;98.00;;;;;;5034161;28;20096;-56
2022/04/10 01:10:32;;;;;;;7.88;3.40;;;5.30;98.10;;;;;;5051158;28;20096;-54
2022/04/10 01:12:59;;;;;;;10.35;3.17;;;5.30;98.00;;;;;;5051388;28;20041;-55
2022/04/10 01:15:26;;;;;;;12.27;3.28;;;5.20;98.10;;;;;;5050278;28;20049;-57
2022/04/10 01:17:52;;;;;;;11.50;3.80;;;5.20;98.20;;;;;;5050277;28;20040;-56
2022/04/10 01:20:20;;;;;;;7.93;3.67;;;5.10;98.20;;;;;;5050263;28;20056;-58
2022/04/10 01:22:46;;;;;;;6.65;3.28;;;5.10;98.30;;;;;;5049786;28;20083;-58
2022/04/10 01:25:13;;;;;;;8.57;2.90;;;5.10;98.50;;;;;;5051587;28;20153;-58
2022/04/10 01:27:40;;;;;;;10.32;3.25;;;5.10;98.30;;;;;;5051110;28;20802;-58
2022/04/10 01:30:09;;;;;;;13.07;3.47;;;5.10;98.40;;;;;;5051219;28;20057;-58
2022/04/10 01:32:35;;;;;;;8.10;3.28;;;5.10;98.50;;;;;;5050658;28;20143;-57
2022/04/10 01:35:02;;;;;;;8.90;3.47;;;5.10;98.60;;;;;;5051372;28;20040;-56
2022/04/10 01:37:30;;;;;;;12.23;3.47;;;5.00;98.70;;;;;;5051070;28;20136;-58
2022/04/10 01:39:57;;;;;;;6.10;2.95;;;5.00;99.00;;;;;;5050925;28;20126;-58
2022/04/10 01:42:24;;;;;;;9.70;3.42;;;4.90;99.10;;;;;;5050885;28;20071;-58
2022/04/10 01:44:51;;;;;;;8.30;3.53;;;4.90;99.20;;;;;;5051200;28;20088;-58
2022/04/10 01:47:17;;;;;;;6.30;3.47;;;4.90;99.10;;;;;;5050799;28;20135;-56
2022/04/10 01:49:44;;;;;;;6.88;2.70;;;4.90;99.00;;;;;;5049591;28;20144;-58
2022/04/10 01:52:11;;;;;;;10.48;3.22;;;5.00;99.20;;;;;;5050442;28;20045;-58
2022/04/10 01:54:38;;;;;;;13.55;3.13;;;4.90;99.30;;;;;;5050874;28;20068;-58
2022/04/10 01:57:05;;;;;;;7.03;2.78;;;4.80;99.40;;;;;;5049472;28;20095;-56
2022/04/10 01:59:32;;;;;;;9.35;3.17;;;4.80;99.20;;;;;;5050876;28;20132;-54
2022/04/10 02:01:59;;;;;;;7.50;3.08;;;4.70;99.20;;;;;;5032949;28;20052;-56
2022/04/10 02:04:26;;;;;;;15.73;3.85;;;4.70;99.20;;;;;;5050644;28;20045;-58
2022/04/10 02:06:52;;;;;;;8.13;2.80;;;4.70;99.30;;;;;;5050061;28;20136;-57
2022/04/10 02:09:19;;;;;;;7.97;3.08;;;4.50;99.40;;;;;;5050927;28;20687;-59
2022/04/10 02:11:46;;;;;;;8.93;3.72;;;4.50;99.50;;;;;;5050332;28;20084;-58
2022/04/10 02:14:13;;;;;;;9.18;3.75;;;4.50;99.70;;;;;;5050169;28;20057;-58
2022/04/10 02:16:40;;;;;;;7.43;3.30;;;4.40;99.70;;;;;;5050084;28;20080;-54
2022/04/10 02:19:07;;;;;;;8.55;3.22;;;4.40;99.90;;;;;;5050210;28;20049;-57
2022/04/10 02:21:33;;;;;;;10.40;3.83;;;4.40;99.90;;;;;;5050167;28;20053;-57
2022/04/10 02:24:00;;;;;;;9.82;3.10;;;4.40;99.90;;;;;;5050246;28;20503;-56
2022/04/10 02:26:27;;;;;;;16.52;4.00;;;4.40;99.90;;;;;;5050421;28;20079;-56
2022/04/10 02:28:54;;;;;;;10.88;3.95;;;4.30;99.90;;;;;;5049908;28;20132;-58
2022/04/10 02:31:20;;;;;;;11.27;3.83;;;4.20;99.90;;;;;;5050317;28;20076;-57
2022/04/10 02:33:47;;;;;;;9.40;3.35;;;4.20;99.90;;;;;;5049539;28;20041;-59
2022/04/10 02:36:16;;;;;;;9.60;3.95;;;4.20;99.90;;;;;;5050489;28;20136;-57
2022/04/10 02:38:43;;;;;;;12.57;3.72;;;4.30;99.90;;;;;;5050401;28;20041;-57
2022/04/10 02:41:10;;;;;;;12.68;3.95;;;4.20;99.90;;;;;;5050044;28;20444;-58
2022/04/10 02:43:40;;;;;;;9.30;4.05;;;4.20;99.90;;;;;;5049719;28;20099;-58
2022/04/10 02:46:07;;;;;;;10.65;3.55;;;4.20;99.90;;;;;;5048904;28;20459;-58
2022/04/10 02:48:34;;;;;;;10.35;3.83;;;4.10;99.90;;;;;;5049820;28;20045;-58
2022/04/10 02:51:02;;;;;;;7.78;2.88;;;4.00;99.90;;;;;;5050793;28;20057;-58
2022/04/10 02:53:30;;;;;;;12.55;4.35;;;4.00;99.90;;;;;;5054109;28;20500;-59
2022/04/10 02:55:57;;;;;;;12.25;4.05;;;4.00;99.90;;;;;;5054469;28;20049;-58
2022/04/10 02:58:23;;;;;;;6.57;3.63;;;4.00;99.90;;;;;;5054539;28;20127;-58
2022/04/10 03:00:50;;;;;;;9.52;4.03;;;4.10;99.90;;;;;;5053542;28;20045;-59
2022/04/10 03:03:18;;;;;;;12.10;4.97;;;4.10;99.90;;;;;;5053241;28;20459;-58
2022/04/10 03:05:45;;;;;;;7.00;3.70;;;4.10;99.90;;;;;;5053761;28;20049;-58
2022/04/10 03:08:12;;;;;;;10.68;4.22;;;4.00;99.90;;;;;;5054199;28;20053;-59
2022/04/10 03:10:39;;;;;;;11.57;3.30;;;3.90;99.90;;;;;;5052252;28;20053;-58
2022/04/10 03:13:06;;;;;;;6.55;3.80;;;3.90;99.90;;;;;;5053859;28;20072;-59
2022/04/10 03:15:33;;;;;;;5.00;2.97;;;3.80;99.90;;;;;;5053444;28;20055;-58
2022/04/10 03:18:01;;;;;;;5.43;3.13;;;3.80;99.90;;;;;;5053759;28;20073;-59
2022/04/10 03:20:28;;;;;;;10.52;4.18;;;3.80;99.90;;;;;;5053607;28;20083;-59
2022/04/10 03:22:55;;;;;;;11.20;4.47;;;3.80;99.90;;;;;;5053438;28;20045;-59
2022/04/10 03:25:22;;;;;;;10.10;4.30;;;3.70;99.90;;;;;;5053587;28;20424;-58
2022/04/10 03:27:49;;;;;;;7.03;3.53;;;3.60;99.90;;;;;;5053182;28;20094;-58
2022/04/10 03:30:15;;;;;;;13.30;3.75;;;4.20;99.90;;;;;;5053235;28;20504;-58
2022/04/10 03:32:42;;;;;;;10.15;3.72;;;3.60;99.90;;;;;;5052059;28;20088;-59
2022/04/10 03:35:09;;;;;;;9.20;4.20;;;3.60;99.90;;;;;;5053716;28;20076;-59
2022/04/10 03:37:36;;;;;;;10.90;3.85;;;3.60;99.90;;;;;;5053265;28;20072;-58
2022/04/10 03:40:04;;;;;;;11.88;3.75;;;3.90;99.90;;;;;;5053289;28;20135;-59
2022/04/10 03:42:40;;;;;;;15.27;4.45;;;3.40;99.90;;;;;;5052187;28;20496;-59
2022/04/10 03:45:08;;;;;;;10.57;3.40;;;3.40;99.90;;;;;;5052270;28;20049;-59
2022/04/10 03:47:35;;;;;;;9.95;3.42;;;3.40;99.90;;;;;;5052891;28;20492;-58
2022/04/10 03:50:03;;;;;;;9.90;3.20;;;3.40;99.90;;;;;;5053703;28;20139;-59
2022/04/10 03:52:29;;;;;;;13.50;4.10;;;3.40;99.90;;;;;;5052478;28;20052;-59
2022/04/10 03:54:56;;;;;;;8.60;3.22;;;3.40;99.90;;;;;;5051714;28;20087;-58
2022/04/10 03:57:23;;;;;;;12.77;3.60;;;3.40;99.90;;;;;;5052989;28;20093;-57
2022/04/10 03:59:50;;;;;;;10.43;3.58;;;3.40;99.90;;;;;;5053182;28;20491;-57
2022/04/10 04:02:17;;;;;;;11.48;3.10;;;3.40;99.90;;;;;;5050446;28;20467;-58
2022/04/10 04:04:44;;;;;;;8.75;3.35;;;3.40;99.90;;;;;;5048626;28;20049;-58
2022/04/10 04:07:10;;;;;;;8.45;3.85;;;3.40;99.90;;;;;;5051395;28;20037;-59
2022/04/10 04:09:37;;;;;;;10.57;4.07;;;3.30;99.90;;;;;;5052324;28;20088;-58
2022/04/10 04:12:04;;;;;;;9.93;3.05;;;3.30;99.90;;;;;;5052576;28;20136;-59
2022/04/10 04:14:31;;;;;;;6.05;3.22;;;3.30;99.90;;;;;;5052442;28;20041;-58
2022/04/10 04:16:59;;;;;;;7.20;3.33;;;3.30;99.90;;;;;;5052600;28;20086;-58
2022/04/10 04:19:25;;;;;;;12.18;3.33;;;3.60;99.90;;;;;;5053025;28;20072;-59
2022/04/10 04:21:52;;;;;;;6.82;3.70;;;3.20;99.90;;;;;;5050950;28;20140;-58
2022/04/10 04:24:19;;;;;;;7.70;3.95;;;3.10;99.90;;;;;;5051025;28;20773;-59
2022/04/10 04:26:46;;;;;;;10.02;3.88;;;3.10;99.90;;;;;;5052109;28;20076;-57
2022/04/10 04:29:13;;;;;;;11.95;3.53;;;3.00;99.90;;;;;;5052227;28;20148;-55
2022/04/10 04:31:40;;;;;;;9.32;3.55;;;3.00;99.90;;;;;;5051737;28;20155;-56
2022/04/10 04:34:09;;;;;;;7.80;3.58;;;3.00;99.90;;;;;;5051257;28;20334;-59
2022/04/10 04:36:36;;;;;;;11.95;3.22;;;3.00;99.90;;;;;;5051979;28;20136;-58
2022/04/10 04:39:03;;;;;;;9.73;4.05;;;2.90;99.90;;;;;;5051075;28;20072;-57
2022/04/10 04:41:29;;;;;;;13.23;3.63;;;2.90;99.90;;;;;;5052080;28;20136;-56
2022/04/10 04:43:56;;;;;;;9.18;3.58;;;3.00;99.90;;;;;;5050107;28;20084;-55
2022/04/10 04:46:23;;;;;;;8.55;2.88;;;3.10;99.90;;;;;;5052473;28;20041;-58
2022/04/10 04:48:50;;;;;;;8.88;3.95;;;3.00;99.90;;;;;;5051465;28;20553;-57
2022/04/10 04:51:16;;;;;;;9.27;3.40;;;3.00;99.90;;;;;;5051842;28;20091;-59
2022/04/10 04:53:43;;;;;;;6.10;3.30;;;3.00;99.90;;;;;;5051473;28;20084;-58
2022/04/10 04:56:10;;;;;;;11.25;3.25;;;3.00;99.90;;;;;;5051895;28;20052;-56
2022/04/10 04:58:37;;;;;;;7.13;2.92;;;3.00;99.90;;;;;;5051397;28;20040;-58
2022/04/10 05:01:04;;;;;;;9.57;3.13;;;2.90;99.90;;;;;;5051761;28;20083;-56
2022/04/10 05:03:30;;;;;;;12.23;4.13;;;2.80;99.90;;;;;;5051988;28;20049;-59
2022/04/10 05:05:57;;;;;;;10.40;3.30;;;2.80;99.90;;;;;;5051521;28;20172;-58
2022/04/10 05:08:24;;;;;;;8.73;3.08;;;3.00;99.90;;;;;;5051520;28;20504;-58
2022/04/10 05:10:51;;;;;;;7.07;2.85;;;2.80;99.90;;;;;;5051314;28;20128;-59
2022/04/10 05:13:18;;;;;;;13.07;3.63;;;2.80;99.90;;;;;;5049520;28;20048;-56
2022/04/10 05:15:45;;;;;;;8.63;3.47;;;2.80;99.90;;;;;;5051182;28;20140;-57
2022/04/10 05:18:13;;;;;;;11.40;3.80;;;2.80;99.90;;;;;;5050216;28;20045;-57
2022/04/10 05:20:40;;;;;;;8.63;3.35;;;2.70;99.90;;;;;;5051227;28;20045;-58
2022/04/10 05:23:07;;;;;;;9.07;4.75;;;2.70;99.90;;;;;;5051879;28;20167;-53
2022/04/10 05:25:36;;;;;;;4.70;3.30;;;2.80;99.90;;;;;;5050976;28;20124;-58
2022/04/10 05:28:03;;;;;;;8.65;3.72;;;2.70;99.90;;;;;;5050085;28;20045;-55
2022/04/10 05:30:30;;;;;;;10.77;3.53;;;2.70;99.90;;;;;;5050925;28;20477;-58
2022/04/10 05:32:57;;;;;;;9.45;4.15;;;2.70;99.90;;;;;;5050863;28;20567;-53
2022/04/10 05:35:23;;;;;;;15.23;4.47;;;2.70;99.90;;;;;;5050161;28;20091;-56
2022/04/10 05:37:50;;;;;;;11.75;3.53;;;2.60;99.90;;;;;;5050149;28;20084;-57
2022/04/10 05:40:18;;;;;;;12.23;3.92;;;2.60;99.90;;;;;;5049908;28;20476;-51
2022/04/10 05:42:45;;;;;;;7.13;3.03;;;2.60;99.90;;;;;;5050993;28;20139;-58
2022/04/10 05:45:12;;;;;;;8.52;2.78;;;2.60;99.90;;;;;;5050841;28;20053;-56
2022/04/10 05:47:39;;;;;;;17.27;5.38;;;2.60;99.90;;;;;;5050904;28;20087;-55
2022/04/10 05:50:07;;;;;;;6.95;3.17;;;2.60;99.90;;;;;;5051052;28;20041;-55
2022/04/10 05:52:52;;;;;;;10.25;3.67;;;2.60;99.90;;;;;;5049741;28;20071;-58
2022/04/10 05:55:18;;;;;;;7.63;2.83;;;2.60;99.90;;;;;;5050524;28;20516;-57
2022/04/10 05:57:46;;;;;;;13.18;3.60;;;2.70;99.90;;;;;;5050514;28;20099;-58
2022/04/10 06:00:21;;;;;;;5.18;3.05;;;2.70;99.90;;;;;;5049308;28;20057;-57
2022/04/10 06:02:47;;;;;;;7.95;3.03;;;2.70;99.90;;;;;;5050592;28;20076;-58
2022/04/10 06:05:14;;;;;;;12.63;3.78;;;2.70;99.90;;;;;;5049212;28;20041;-57
2022/04/10 06:07:41;;;;;;;7.60;3.38;;;2.80;99.90;;;;;;5050466;28;20060;-56
2022/04/10 06:10:08;;;;;;;9.27;3.28;;;2.80;99.90;;;;;;5050580;28;20135;-56
2022/04/10 06:12:35;;;;;;;9.00;3.85;;;2.80;99.90;;;;;;5048500;28;20504;-56
2022/04/10 06:15:02;;;;;;;9.73;4.43;;;2.90;99.90;;;;;;5050331;28;20161;-57
2022/04/10 06:17:30;;;;;;;8.77;4.78;;;3.00;99.90;;;;;;5050544;28;20119;-53
2022/04/10 06:19:57;;;;;;;14.15;3.58;;;3.00;99.90;;;;;;5050356;28;20099;-55
2022/04/10 06:22:24;;;;;;;15.20;3.35;;;3.10;99.90;;;;;;5049184;28;20128;-54
2022/04/10 06:24:51;;;;;;;9.63;3.60;;;3.10;99.90;;;;;;5050706;28;20133;-58
2022/04/10 06:27:19;;;;;;;7.43;3.42;;;3.20;99.90;;;;;;5050026;28;20139;-57
2022/04/10 06:29:46;;;;;;;12.23;3.33;;;3.30;99.90;;;;;;5050094;28;20080;-59
2022/04/10 06:32:17;;;;;;;14.02;4.53;;;3.50;99.90;;;;;;5050609;28;20049;-56
2022/04/10 06:34:44;;;;;;;9.38;3.47;;;3.50;99.90;;;;;;5050452;28;20053;-57
2022/04/10 06:37:12;;;;;;;10.63;3.72;;;3.60;99.90;;;;;;5050224;28;20132;-57
2022/04/10 06:39:39;;;;;;;6.07;3.45;;;3.60;99.90;;;;;;5050533;28;20408;-56
2022/04/10 06:42:07;;;;;;;7.70;3.55;;;3.70;99.90;;;;;;5050246;28;20048;-60
2022/04/10 06:44:34;;;;;;;12.70;3.70;;;3.80;99.90;;;;;;5049996;28;20144;-58
2022/04/10 06:47:01;;;;;;;8.68;4.25;;;3.80;99.90;;;;;;5050164;28;20037;-58
2022/04/10 06:49:28;;;;;;;8.23;4.13;;;3.90;99.90;;;;;;5050105;28;20041;-59
2022/04/10 06:51:55;;;;;;;7.20;4.03;;;4.00;99.90;;;;;;5049623;28;20076;-58
2022/04/10 06:54:21;;;;;;;13.98;3.70;;;4.10;99.90;;;;;;5049393;28;20102;-59
2022/04/10 06:56:48;;;;;;;9.70;3.90;;;4.20;99.90;;;;;;5049223;28;20548;-57
2022/04/10 06:59:15;;;;;;;10.40;4.35;;;4.30;99.90;;;;;;5048474;28;20500;-58
2022/04/10 07:01:42;;;;;;;8.00;3.60;;;4.40;99.90;;;;;;5047775;28;20096;-59
2022/04/10 07:04:09;;;;;;;12.20;4.88;;;4.40;99.90;;;;;;5049407;28;20045;-57
2022/04/10 07:06:35;;;;;;;14.02;4.53;;;4.50;99.90;;;;;;5048670;28;20448;-59
2022/04/10 07:09:02;;;;;;;8.05;4.40;;;4.60;99.90;;;;;;5049006;28;20041;-59
2022/04/10 07:11:31;;;;;;;10.23;3.40;;;4.70;99.90;;;;;;5048662;28;20052;-59
2022/04/10 07:13:57;;;;;;;8.57;4.20;;;4.80;99.90;;;;;;5048049;28;20053;-59
2022/04/10 07:16:24;;;;;;;9.18;4.07;;;4.90;99.90;;;;;;5047409;28;20048;-58
2022/04/10 07:18:51;;;;;;;18.05;4.82;;;5.00;99.90;;;;;;5047982;28;20187;-58
2022/04/10 07:23:41;;;;;;;11.27;4.07;;;5.10;99.90;;;;;;5049228;28;20161;-58
2022/04/10 07:24:05;;;;;;;12.18;4.13;;;5.20;99.90;;;;;;5049333;28;20515;-59
2022/04/10 07:26:32;;;;;;;10.55;3.65;;;5.30;99.90;;;;;;5049059;28;20057;-56
2022/04/10 07:28:59;;;;;;;12.05;3.55;;;5.40;99.90;;;;;;5048134;28;20136;-58
2022/04/10 07:31:25;;;;;;;10.45;4.28;;;5.50;99.90;;;;;;5048912;28;20048;-57
2022/04/10 07:33:52;;;;;;;15.25;4.35;;;5.60;99.90;;;;;;5047573;28;20099;-58
2022/04/10 07:36:20;;;;;;;10.80;4.25;;;5.80;99.90;;;;;;5049120;28;20566;-59
2022/04/10 07:38:46;;;;;;;7.93;3.47;;;5.80;99.90;;;;;;5048416;28;20053;-59
2022/04/10 07:41:13;;;;;;;13.70;4.00;;;6.00;99.90;;;;;;5052246;28;20124;-59
2022/04/10 07:43:40;;;;;;;13.75;3.97;;;6.00;99.90;;;;;;5051999;28;20041;-57
2022/04/10 07:48:52;;;;;;;17.08;5.50;;;6.30;99.90;;;;;;5051878;28;20567;-58
2022/04/10 07:51:19;;;;;;;7.85;4.22;;;6.40;99.90;;;;;;5052297;28;20044;-59
2022/04/10 07:53:45;;;;;;;11.20;4.65;;;6.60;99.90;;;;;;5051641;28;20157;-59
2022/04/10 07:56:12;;;;;;;13.55;6.38;;;6.70;99.90;;;;;;5052164;28;20049;-58
2022/04/10 07:58:39;;;;;;;16.42;5.70;;;6.80;99.90;;;;;;5032145;28;21236;-59
2022/04/10 08:01:07;;;;;;;10.35;4.28;;;6.90;99.90;;;;;;5032055;28;20072;-59
2022/04/10 08:03:33;;;;;;;10.35;4.75;;;7.00;99.90;;;;;;5052611;28;20045;-58
2022/04/10 08:06:00;;;;;;;12.23;4.97;;;7.10;99.90;;;;;;5052378;28;20055;-58
2022/04/10 08:08:27;;;;;;;11.50;4.93;;;7.10;99.90;;;;;;5052167;28;20075;-58
2022/04/10 08:10:54;;;;;;;8.30;3.95;;;7.30;99.90;;;;;;5051226;28;20068;-58
2022/04/10 08:13:21;;;;;;;12.40;4.47;;;7.30;99.90;;;;;;5051554;28;20056;-58
2022/04/10 08:15:48;;;;;;;6.50;3.38;;;7.40;99.90;;;;;;5050183;28;20463;-58
2022/04/10 08:18:15;;;;;;;10.38;3.20;;;7.40;99.90;;;;;;5051951;28;20542;-59
2022/04/10 08:20:42;;;;;;;11.00;5.28;;;7.50;99.90;;;;;;5051549;28;20049;-59
2022/04/10 08:23:08;;;;;;;9.75;3.03;;;7.60;99.90;;;;;;5051884;28;20099;-58
2022/04/10 08:25:35;;;;;;;9.57;2.97;;;7.70;99.90;;;;;;5051775;28;20060;-59
2022/04/10 08:28:02;;;;;;;7.03;2.70;;;7.90;99.90;;;;;;5048679;28;20052;-60
2022/04/10 08:30:29;;;;;;;8.55;2.78;;;8.00;99.90;;;;;;5047725;28;20057;-60
2022/04/10 08:32:56;;;;;;;9.15;2.72;;;8.20;99.60;;;;;;5048229;28;20091;-60
2022/04/10 08:35:23;;;;;;;6.78;2.15;;;8.30;99.40;;;;;;5048499;28;20554;-57
2022/04/10 08:37:51;;;;;;;7.00;2.08;;;8.40;99.30;;;;;;5047765;28;20045;-60
2022/04/10 08:40:18;;;;;;;7.50;1.92;;;8.50;98.80;;;;;;5046542;28;20118;-59
2022/04/10 08:42:45;;;;;;;7.82;2.55;;;8.60;98.20;;;;;;5029568;28;20136;-60
2022/04/10 08:45:12;;;;;;;3.88;1.67;;;8.80;97.70;;;;;;5048056;28;20111;-60
2022/04/10 08:47:39;;;;;;;7.65;2.13;;;8.80;97.30;;;;;;5047948;28;20053;-59
2022/04/10 08:50:07;;;;;;;11.35;2.17;;;8.90;97.40;;;;;;5047844;28;20056;-58
2022/04/10 08:52:34;;;;;;;7.95;2.17;;;9.00;97.10;;;;;;5047193;28;20087;-59
2022/04/10 08:55:01;;;;;;;3.15;1.58;;;9.10;95.30;;;;;;5030549;28;20098;-57
2022/04/10 08:57:28;;;;;;;6.40;1.30;;;9.20;92.70;;;;;;5048177;28;20126;-60
2022/04/10 09:00:00;;;;;;;7.55;1.35;;;9.30;92.60;;;;;;5047831;28;20124;-59
2022/04/10 09:02:27;;;;;;;5.03;1.50;;;9.50;93.70;;;;;;5046260;28;20056;-58
2022/04/10 09:04:54;;;;;;;5.00;1.10;;;9.50;94.60;;;;;;5047365;28;20568;-58
2022/04/10 09:07:21;;;;;;;3.83;1.17;;;9.60;93.40;;;;;;5045875;28;20193;-58
2022/04/10 09:09:56;;;;;;;5.80;1.08;;;9.70;94.00;;;;;;5045620;28;20084;-58
2022/04/10 09:12:23;;;;;;;6.10;1.23;;;9.70;87.70;;;;;;5046197;28;20056;-59
2022/04/10 09:14:50;;;;;;;4.55;1.17;;;9.70;91.70;;;;;;5025707;28;20141;-60
2022/04/10 09:17:18;;;;;;;10.02;2.00;;;9.80;92.10;;;;;;5047049;28;20143;-58
2022/04/10 09:19:49;;;;;;;8.95;1.83;;;9.90;92.80;;;;;;5044917;28;20482;-59
2022/04/10 09:22:24;;;;;;;3.00;1.23;;;10.00;90.60;;;;;;5045888;28;20055;-56
2022/04/10 09:25:08;;;;;;;3.92;1.40;;;10.10;91.30;;;;;;5046953;28;20084;-58
2022/04/10 09:27:36;;;;;;;2.70;1.00;;;10.20;81.80;;;;;;4697492;28;10000067;-58
2022/04/10 09:30:05;;;;;;;7.93;1.52;;;10.30;81.80;;;;;;5046166;28;20167;-59
2022/04/10 09:32:51;;;;;;;3.47;1.08;;;10.40;78.60;;;;;;5046264;28;20116;-60
2022/04/10 09:35:22;;;;;;;4.70;1.10;;;10.70;78.00;;;;;;5044171;28;20059;-59
2022/04/10 09:37:56;;;;;;;3.30;0.90;;;11.10;87.20;;;;;;5045467;28;20049;-59
2022/04/10 09:40:26;;;;;;;4.75;1.40;;;11.40;81.50;;;;;;5044161;28;20485;-58
2022/04/10 09:43:10;;;;;;;4.88;1.17;;;11.50;82.60;;;;;;5045384;28;20474;-59
2022/04/10 09:45:40;;;;;;;;;;;11.70;65.90;;;;;;5044145;28;20136;-59
2022/04/10 09:48:17;;;;;;;4.45;1.20;;;11.80;61.60;;;;;;5046091;28;20072;-58
2022/04/10 09:50:44;;;;;;;4.13;1.05;;;12.00;73.40;;;;;;5041677;28;20132;-60
2022/04/10 09:53:11;;;;;;;5.13;1.58;;;12.20;82.10;;;;;;5044241;28;20092;-59
2022/04/10 09:55:39;;;;;;;6.68;1.50;;;12.40;73.30;;;;;;5044720;28;20047;-59
2022/04/10 09:58:13;;;;;;;6.63;1.05;;;12.20;69.10;;;;;;5048007;28;20099;-59
2022/04/10 10:00:43;;;;;;;2.97;0.98;;;12.30;62.90;;;;;;5047136;28;20045;-57
2022/04/10 10:03:10;;;;;;;3.72;1.02;;;12.30;68.80;;;;;;5047211;28;20049;-57
2022/04/10 10:05:37;;;;;;;9.68;1.20;;;12.40;78.20;;;;;;5048759;28;20077;-61
2022/04/10 10:08:04;;;;;;;9.05;1.55;;;12.60;70.30;;;;;;5047771;28;20080;-60
2022/04/10 10:10:34;;;;;;;4.47;1.33;;;12.60;67.20;;;;;;5048929;28;20103;-59
2022/04/10 10:13:05;;;;;;;6.18;0.98;;;12.40;74.00;;;;;;5046449;28;20131;-60
2022/04/10 10:15:37;;;;;;;3.53;1.30;;;12.30;68.50;;;;;;5045507;28;20132;-59
2022/04/10 10:18:05;;;;;;;1.13;0.82;;;11.90;67.00;;;;;;5047394;28;20041;-62
2022/04/10 10:20:32;;;;;;;4.43;1.10;;;11.70;64.50;;;;;;5048353;28;20048;-58
2022/04/10 10:23:03;;;;;;;5.63;0.93;;;11.60;69.50;;;;;;5047819;28;20083;-59
2022/04/10 10:25:47;;;;;;;2.58;1.30;;;11.60;67.00;;;;;;5047538;28;20072;-60
2022/04/10 10:28:33;;;;;;;2.20;1.40;;;11.50;68.50;;;;;;5045040;28;20076;-59
2022/04/10 10:31:21;;;;;;;6.50;1.25;;;11.40;72.70;;;;;;5048862;28;20072;-60
2022/04/10 10:33:51;;;;;;;4.03;1.20;;;11.40;73.10;;;;;;5048704;28;20063;-60
2022/04/10 10:36:28;;;;;;;3.28;0.98;;;11.50;78.20;;;;;;5047458;28;20127;-59
2022/04/10 10:38:56;;;;;;;5.35;1.77;;;11.70;76.10;;;;;;5048636;28;20098;-60
2022/04/10 10:41:23;;;;;;;5.55;1.40;;;11.80;79.70;;;;;;5046878;28;20494;-59
2022/04/10 10:43:50;;;;;;;4.28;1.48;;;11.80;78.40;;;;;;5048300;28;20571;-59
2022/04/10 10:46:28;;;;;;;2.67;1.15;;;11.90;79.00;;;;;;5048913;28;20094;-60
2022/04/10 10:49:18;;;;;;;7.10;2.22;;;11.90;78.00;;;;;;5050213;28;20134;-59
2022/04/10 10:51:46;;;;;;;6.10;2.90;;;12.00;73.90;;;;;;5047292;28;20451;-59
2022/04/10 10:54:33;;;;;;;6.78;2.42;;;12.00;77.50;;;;;;5049085;28;20057;-59
2022/04/10 10:57:19;;;;;;;9.73;1.50;;;12.00;74.10;;;;;;5046038;28;20044;-60
2022/04/10 10:59:46;;;;;;;7.78;1.67;;;12.00;79.70;;;;;;5052470;28;20114;-59
2022/04/10 11:02:14;;;;;;;8.65;1.50;;;12.10;80.30;;;;;;5033839;28;20057;-59
2022/04/10 11:05:23;;;;;;;7.28;1.25;;;12.20;80.10;;;;;;5049249;28;20049;-58
2022/04/10 11:08:18;;;;;;;3.30;0.85;;;12.30;78.10;;;;;;5050714;28;20056;-59
2022/04/10 11:10:52;;;;;;;4.45;0.95;;;12.20;69.90;;;;;;5049673;28;20095;-60
2022/04/10 11:13:19;;;;;;;7.22;1.30;;;12.20;72.50;;;;;;5050618;28;20095;-60
2022/04/10 11:15:48;;;;;;;3.20;1.00;;;12.20;77.50;;;;;;5053980;28;20045;-59
2022/04/10 11:18:25;;;;;;;4.32;1.00;;;12.20;72.00;;;;;;5054464;28;20049;-60
2022/04/10 11:21:04;;;;;;;2.75;1.17;;;12.30;71.00;;;;;;5051204;28;20049;-58
2022/04/10 11:23:31;;;;;;;2.90;0.93;;;12.40;72.20;;;;;;5050835;28;20136;-59
2022/04/10 11:26:07;;;;;;;6.47;1.02;;;12.50;77.10;;;;;;5053841;28;20114;-60
2022/04/10 11:29:02;;;;;;;2.80;0.95;;;12.40;72.90;;;;;;5051753;28;20049;-59
2022/04/10 11:31:35;;;;;;;3.25;1.30;;;12.50;68.60;;;;;;5053176;28;20087;-59
2022/04/10 11:34:12;;;;;;;4.75;1.17;;;12.60;72.70;;;;;;5055554;28;20045;-60
2022/04/10 11:36:54;;;;;;;3.30;0.95;;;12.70;69.70;;;;;;5054149;28;20080;-58
2022/04/10 11:39:28;;;;;;;4.90;1.80;;;12.70;72.90;;;;;;5055268;28;20061;-60
2022/04/10 11:42:05;;;;;;;5.00;1.52;;;12.80;74.00;;;;;;5036691;28;20056;-59
2022/04/10 11:44:32;;;;;;;2.65;0.98;;;12.80;70.80;;;;;;5053990;28;20095;-59
2022/04/10 11:47:00;;;;;;;7.50;1.67;;;12.70;69.90;;;;;;5051895;28;20098;-59
2022/04/10 11:49:27;;;;;;;4.55;1.23;;;12.80;73.60;;;;;;5053301;28;20049;-58
2022/04/10 11:51:56;;;;;;;6.05;1.83;;;12.90;76.00;;;;;;5051836;28;20041;-60
2022/04/10 11:54:28;;;;;;;3.80;1.20;;;13.00;74.30;;;;;;4702578;28;10001208;-60
2022/04/10 11:56:57;;;;;;;5.78;1.50;;;12.90;75.80;;;;;;5044652;28;20504;-61
2022/04/10 11:59:23;;;;;;;4.03;1.85;;;13.00;77.20;;;;;;5046673;28;20638;-59
2022/04/10 12:01:50;;;;;;;4.75;1.77;;;13.00;77.70;;;;;;5048604;28;20080;-59
2022/04/10 12:04:18;;;;;;;11.30;2.42;;;13.00;73.80;;;;;;5049776;28;20052;-59
2022/04/10 12:06:46;;;;;;;8.60;1.65;;;13.10;80.20;;;;;;5048665;28;20044;-58
2022/04/10 12:09:14;;;;;;;9.82;2.28;;;13.20;80.50;;;;;;5048564;28;20053;-60
2022/04/10 12:11:41;;;;;;;9.52;2.10;;;13.30;81.60;;;;;;5050341;28;20547;-59
2022/04/10 12:14:21;;;;;;;4.43;1.58;;;13.20;81.20;;;;;;5051268;28;20049;-59
2022/04/10 12:16:48;;;;;;;5.88;1.48;;;13.30;80.10;;;;;;5051779;28;20089;-60
2022/04/10 12:19:15;;;;;;;8.70;1.88;;;13.30;81.90;;;;;;5050997;28;20596;-59
2022/04/10 12:21:50;;;;;;;8.25;1.73;;;13.30;82.10;;;;;;5050239;28;20560;-60
2022/04/10 12:24:20;;;;;;;8.65;1.90;;;13.30;81.40;;;;;;5051089;28;20497;-60
2022/04/10 12:26:49;;;;;;;7.78;1.92;;;13.30;80.20;;;;;;5049138;28;20048;-59
2022/04/10 12:29:17;;;;;;;8.75;1.58;;;13.30;80.90;;;;;;5047120;28;20053;-60
2022/04/10 12:31:45;;;;;;;4.70;1.80;;;13.20;81.70;;;;;;5043428;28;20088;-60
2022/04/10 12:34:13;;;;;;;6.28;1.95;;;13.30;82.10;;;;;;5046475;28;20060;-60
2022/04/10 12:36:47;;;;;;;5.85;1.42;;;13.40;81.40;;;;;;5047603;28;20080;-59
2022/04/10 12:39:25;;;;;;;10.15;1.42;;;13.50;79.60;;;;;;5045106;28;20061;-59
2022/04/10 12:42:01;;;;;;;7.80;1.85;;;13.30;77.60;;;;;;5042016;28;20588;-58
2022/04/10 12:44:28;;;;;;;7.03;1.80;;;13.20;77.30;;;;;;5045267;28;20081;-59
2022/04/10 12:46:55;;;;;;;6.45;1.92;;;13.10;81.40;;;;;;5045881;28;20091;-60
2022/04/10 12:49:24;;;;;;;9.93;1.70;;;13.10;81.60;;;;;;5047645;28;20053;-59
2022/04/10 12:51:59;;;;;;;4.68;1.50;;;13.30;82.70;;;;;;5047955;28;20083;-59
2022/04/10 12:54:36;;;;;;;9.23;2.47;;;13.60;82.90;;;;;;5048275;28;20215;-60
2022/04/10 12:57:05;;;;;;;3.13;1.17;;;13.80;78.70;;;;;;5046118;28;20057;-59
2022/04/10 12:59:41;;;;;;;5.85;1.63;;;13.80;80.10;;;;;;5047768;28;20041;-59
2022/04/10 13:02:29;;;;;;;7.03;2.40;;;13.80;79.90;;;;;;5044915;28;20493;-60